Time;durP1;ratioP1;P1;durP2;ratioP2;P2;SDS_P1;SDS_P2;PMS_P1;PMS_P2;Temp;Humidity;BMP_temperature;BMP_pressure;BME280_temperature;BME280_humidity;BME280_pressure;Samples;Min_cycle;Max_cycle;Signal;HPM_P1;HPM_P2
2022/11/14 00:00:27;;;;;;;19.50;10.88;;;4.90;99.90;;;;;;5032302;28;20815;-74
2022/11/14 00:02:53;;;;;;;24.45;13.63;;;5.20;99.90;;;;;;5037253;28;20392;-75
2022/11/14 00:05:19;;;;;;;19.50;11.30;;;5.00;99.90;;;;;;5035764;28;20446;-76
2022/11/14 00:07:46;;;;;;;29.07;15.93;;;4.90;99.90;;;;;;5033747;28;20413;-76
2022/11/14 00:10:12;;;;;;;19.30;12.40;;;4.80;99.90;;;;;;5019011;28;20412;-76
2022/11/14 00:12:38;;;;;;;25.08;13.30;;;4.70;99.90;;;;;;5014092;28;20451;-75
2022/11/14 00:15:04;;;;;;;18.77;11.43;;;4.70;99.90;;;;;;5016741;28;20393;-76
2022/11/14 00:17:29;;;;;;;19.65;12.57;;;4.70;99.90;;;;;;5020045;28;20397;-76
2022/11/14 00:19:55;;;;;;;21.80;11.80;;;4.90;99.90;;;;;;5020218;28;20571;-76
2022/11/14 00:22:20;;;;;;;19.93;11.83;;;4.80;99.90;;;;;;5015801;28;20404;-76
2022/11/14 00:24:46;;;;;;;18.93;11.73;;;4.80;99.90;;;;;;5015175;28;20437;-76
2022/11/14 00:27:11;;;;;;;21.60;11.70;;;4.70;99.90;;;;;;5014209;28;20498;-76
2022/11/14 00:29:37;;;;;;;21.50;11.87;;;4.80;99.90;;;;;;5014739;28;20396;-76
2022/11/14 00:32:03;;;;;;;24.27;12.83;;;4.80;99.90;;;;;;5016729;28;20420;-76
2022/11/14 00:34:28;;;;;;;20.80;12.13;;;4.80;99.90;;;;;;5014634;28;20408;-75
2022/11/14 00:36:54;;;;;;;12.30;8.33;;;4.70;99.90;;;;;;5014070;28;20814;-76
2022/11/14 00:39:19;;;;;;;14.80;9.43;;;4.80;99.90;;;;;;5013028;28;20877;-74
2022/11/14 00:41:45;;;;;;;18.43;10.53;;;5.00;99.90;;;;;;5012629;28;20439;-75
2022/11/14 00:44:11;;;;;;;13.47;7.60;;;5.10;99.90;;;;;;5012294;28;20404;-75
2022/11/14 00:46:37;;;;;;;12.40;7.90;;;4.90;94.10;;;;;;5013751;28;20416;-77
2022/11/14 00:49:03;;;;;;;11.48;7.45;;;4.90;96.00;;;;;;5013538;28;20405;-76
2022/11/14 00:51:28;;;;;;;11.75;7.30;;;4.90;96.00;;;;;;5013373;28;20813;-75
2022/11/14 00:53:54;;;;;;;12.90;7.60;;;4.90;94.30;;;;;;5013272;28;20412;-76
2022/11/14 00:56:20;;;;;;;11.10;7.05;;;5.00;91.50;;;;;;5014143;28;20927;-76
2022/11/14 00:58:45;;;;;;;14.82;8.80;;;5.00;87.90;;;;;;5013966;28;20392;-76
2022/11/14 01:01:11;;;;;;;12.70;7.40;;;5.10;89.10;;;;;;5013332;28;20418;-77
2022/11/14 01:03:36;;;;;;;11.63;7.87;;;4.90;87.10;;;;;;5013553;28;20397;-76
2022/11/14 01:06:06;;;;;;;14.50;8.00;;;4.90;88.50;;;;;;5013084;28;20408;-74
2022/11/14 01:08:32;;;;;;;13.15;7.20;;;4.90;84.50;;;;;;5012999;28;21009;-75
2022/11/14 01:10:59;;;;;;;10.95;6.30;;;5.00;84.90;;;;;;5012849;28;20396;-75
2022/11/14 01:13:25;;;;;;;10.27;7.10;;;5.00;80.20;;;;;;5013530;28;20401;-76
2022/11/14 01:15:51;;;;;;;11.70;7.93;;;4.80;82.00;;;;;;5014637;28;20882;-76
2022/11/14 01:18:19;;;;;;;11.45;7.20;;;4.70;85.10;;;;;;5013863;28;20404;-76
2022/11/14 01:20:46;;;;;;;7.70;5.70;;;4.60;85.80;;;;;;5013487;28;20881;-76
2022/11/14 01:23:14;;;;;;;11.10;7.00;;;4.50;87.10;;;;;;5012242;28;20401;-75
2022/11/14 01:25:40;;;;;;;9.73;6.60;;;4.40;88.70;;;;;;5011854;28;20447;-77
2022/11/14 01:28:17;;;;;;;10.05;6.18;;;4.30;90.40;;;;;;5013004;28;20434;-75
2022/11/14 01:30:43;;;;;;;9.57;5.80;;;4.30;92.20;;;;;;5012767;28;20734;-75
2022/11/14 01:33:09;;;;;;;11.40;6.70;;;4.60;89.30;;;;;;5012647;28;20400;-76
2022/11/14 01:35:37;;;;;;;13.20;7.10;;;4.70;86.20;;;;;;5012500;28;20405;-76
2022/11/14 01:38:04;;;;;;;11.23;6.30;;;4.80;83.70;;;;;;5011931;28;20785;-75
2022/11/14 01:40:31;;;;;;;12.77;7.80;;;4.70;83.30;;;;;;5011910;28;20420;-76
2022/11/14 01:43:15;;;;;;;12.88;7.03;;;4.40;85.80;;;;;;5010467;28;20431;-76
2022/11/14 01:45:56;;;;;;;8.68;6.47;;;4.30;89.80;;;;;;5012349;28;20743;-77
2022/11/14 01:48:30;;;;;;;14.35;7.60;;;4.30;90.40;;;;;;5011994;28;20459;-75
2022/11/14 01:51:14;;;;;;;14.40;8.40;;;4.20;91.60;;;;;;5011088;28;20403;-76
2022/11/14 01:53:41;;;;;;;11.35;6.90;;;4.10;93.30;;;;;;5012121;28;20447;-76
2022/11/14 01:56:10;;;;;;;15.18;7.38;;;4.10;94.60;;;;;;5012319;28;20477;-76
2022/11/14 01:58:39;;;;;;;11.63;7.90;;;4.00;96.60;;;;;;5012074;28;20401;-75
2022/11/14 02:01:05;;;;;;;12.68;8.20;;;4.00;97.90;;;;;;5011653;28;20416;-74
2022/11/14 02:03:32;;;;;;;14.40;8.95;;;4.00;99.40;;;;;;5012736;28;20392;-76
2022/11/14 02:05:59;;;;;;;13.45;7.90;;;4.00;99.60;;;;;;5012379;28;20384;-75
2022/11/14 02:08:25;;;;;;;12.38;7.85;;;4.00;99.90;;;;;;5012228;28;20431;-75
2022/11/14 02:10:50;;;;;;;17.30;9.63;;;4.00;99.90;;;;;;5011078;28;20751;-75
2022/11/14 02:13:16;;;;;;;14.40;8.90;;;3.90;99.90;;;;;;5012488;28;20397;-76
2022/11/14 02:15:42;;;;;;;17.17;8.30;;;3.90;99.90;;;;;;5012897;28;20397;-76
2022/11/14 02:18:07;;;;;;;14.93;8.60;;;3.90;99.90;;;;;;5016367;28;21018;-75
2022/11/14 02:20:41;;;;;;;14.33;8.03;;;3.90;99.90;;;;;;5012793;28;20434;-76
2022/11/14 02:23:08;;;;;;;12.80;8.10;;;3.90;99.90;;;;;;5011546;28;20396;-75
2022/11/14 02:25:33;;;;;;;10.85;7.93;;;3.90;99.90;;;;;;5012881;28;20405;-77
2022/11/14 02:27:59;;;;;;;12.23;7.67;;;3.90;99.90;;;;;;5013295;28;20416;-75
2022/11/14 02:30:25;;;;;;;11.40;7.57;;;3.80;99.90;;;;;;5012120;28;20428;-76
2022/11/14 02:32:51;;;;;;;13.57;8.90;;;3.90;99.90;;;;;;5014043;28;20424;-76
2022/11/14 02:35:17;;;;;;;13.80;8.57;;;3.90;99.90;;;;;;5016324;28;20396;-76
2022/11/14 02:37:42;;;;;;;13.60;7.30;;;3.90;99.90;;;;;;5018011;28;20400;-76
2022/11/14 02:40:08;;;;;;;12.20;8.70;;;3.80;99.90;;;;;;5018746;28;20472;-75
2022/11/14 02:42:34;;;;;;;13.43;8.50;;;3.80;99.90;;;;;;5015974;28;20468;-76
2022/11/14 02:44:59;;;;;;;12.25;8.18;;;3.70;99.90;;;;;;5015049;28;20495;-75
2022/11/14 02:47:25;;;;;;;15.57;8.80;;;3.70;99.90;;;;;;5011694;28;20404;-74
2022/11/14 02:49:51;;;;;;;13.02;8.57;;;3.70;99.90;;;;;;5012319;28;20393;-75
2022/11/14 02:52:17;;;;;;;17.75;10.20;;;3.80;99.90;;;;;;5011198;28;20539;-75
2022/11/14 02:54:42;;;;;;;13.40;9.27;;;3.80;99.90;;;;;;5011448;28;20973;-75
2022/11/14 02:57:08;;;;;;;13.97;8.83;;;3.80;99.90;;;;;;5011192;28;20396;-75
2022/11/14 02:59:34;;;;;;;14.20;9.00;;;4.00;99.90;;;;;;5010805;28;20401;-74
2022/11/14 03:02:00;;;;;;;12.60;8.20;;;4.30;98.60;;;;;;5010771;28;20487;-74
2022/11/14 03:04:25;;;;;;;16.70;10.38;;;4.40;93.50;;;;;;5010758;28;20401;-74
2022/11/14 03:06:51;;;;;;;13.55;8.13;;;4.20;93.40;;;;;;5013307;28;20404;-75
2022/11/14 03:09:17;;;;;;;11.18;7.70;;;4.10;93.80;;;;;;5014755;28;20404;-75
2022/11/14 03:11:42;;;;;;;11.93;8.45;;;3.90;94.90;;;;;;5014143;28;20396;-74
2022/11/14 03:14:08;;;;;;;12.40;8.82;;;3.90;96.80;;;;;;5016361;28;20400;-75
2022/11/14 03:16:34;;;;;;;14.30;8.40;;;3.80;98.70;;;;;;5017910;28;20401;-75
2022/11/14 03:18:59;;;;;;;15.20;8.55;;;3.80;99.50;;;;;;5016222;28;20404;-74
2022/11/14 03:21:25;;;;;;;11.43;8.50;;;3.80;99.90;;;;;;5014520;28;20396;-75
2022/11/14 03:23:50;;;;;;;13.77;9.35;;;3.70;99.90;;;;;;5013486;28;20400;-75
2022/11/14 03:26:16;;;;;;;15.82;9.60;;;3.70;99.90;;;;;;5014776;28;20404;-74
2022/11/14 03:28:42;;;;;;;13.30;8.20;;;3.70;99.90;;;;;;5014452;28;20453;-74
2022/11/14 03:31:09;;;;;;;11.23;8.15;;;3.70;99.90;;;;;;5014440;28;20765;-74
2022/11/14 03:33:35;;;;;;;16.48;9.27;;;3.80;99.90;;;;;;5014560;28;20404;-74
2022/11/14 03:36:02;;;;;;;16.55;9.10;;;3.80;99.90;;;;;;5014319;28;20403;-73
2022/11/14 03:38:27;;;;;;;20.27;9.73;;;4.00;99.90;;;;;;5013944;28;20478;-75
2022/11/14 03:40:53;;;;;;;23.30;9.10;;;4.00;98.10;;;;;;5014217;28;20901;-75
2022/11/14 03:43:20;;;;;;;14.13;8.70;;;3.90;97.40;;;;;;5014292;28;20404;-75
2022/11/14 03:45:46;;;;;;;15.95;9.65;;;4.00;97.40;;;;;;5014224;28;20400;-74
2022/11/14 03:48:12;;;;;;;19.13;10.53;;;3.90;96.90;;;;;;5014040;28;20751;-74
2022/11/14 03:50:38;;;;;;;13.45;9.27;;;4.00;97.10;;;;;;5013913;28;20392;-75
2022/11/14 03:53:04;;;;;;;17.80;10.20;;;3.90;95.80;;;;;;5014338;28;20484;-74
2022/11/14 03:55:30;;;;;;;14.07;8.97;;;3.90;98.30;;;;;;5014491;28;20566;-75
2022/11/14 03:57:55;;;;;;;9.67;7.53;;;4.00;97.50;;;;;;5015527;28;20403;-75
2022/11/14 04:00:21;;;;;;;12.90;8.20;;;4.00;97.50;;;;;;5015263;28;20400;-74
2022/11/14 04:02:47;;;;;;;12.30;7.33;;;4.00;97.10;;;;;;5015183;28;20393;-75
2022/11/14 04:05:12;;;;;;;12.18;7.60;;;4.00;95.60;;;;;;5014932;28;20765;-74
2022/11/14 04:07:38;;;;;;;12.30;6.95;;;4.10;94.80;;;;;;5015198;28;20405;-74
2022/11/14 04:10:05;;;;;;;14.23;8.30;;;4.10;93.90;;;;;;5022589;28;20404;-75
2022/11/14 04:12:31;;;;;;;11.88;8.05;;;4.10;94.50;;;;;;5020115;28;20907;-76
2022/11/14 04:14:56;;;;;;;11.57;7.80;;;4.10;94.80;;;;;;5015448;28;20396;-76
2022/11/14 04:17:22;;;;;;;11.00;7.40;;;4.10;95.10;;;;;;5031484;28;20476;-76
2022/11/14 04:19:48;;;;;;;12.80;7.70;;;4.10;94.60;;;;;;5029568;28;20399;-77
2022/11/14 04:22:13;;;;;;;13.50;8.60;;;4.10;95.10;;;;;;5031094;28;20430;-76
2022/11/14 04:24:39;;;;;;;13.17;7.77;;;4.10;96.20;;;;;;5019950;28;20409;-75
2022/11/14 04:27:04;;;;;;;8.40;6.67;;;4.10;96.10;;;;;;5011925;28;20420;-75
2022/11/14 04:29:30;;;;;;;11.77;7.77;;;4.20;94.10;;;;;;5002292;28;20398;-75
2022/11/14 04:31:55;;;;;;;12.30;8.10;;;4.20;93.00;;;;;;4994182;28;20469;-75
2022/11/14 04:34:21;;;;;;;12.10;7.67;;;4.20;91.90;;;;;;4994015;28;20434;-75
2022/11/14 04:36:50;;;;;;;14.45;8.43;;;4.20;92.50;;;;;;4993797;28;20480;-76
2022/11/14 04:39:16;;;;;;;10.63;7.60;;;4.20;93.20;;;;;;4993773;28;20900;-75
2022/11/14 04:41:41;;;;;;;12.30;7.10;;;4.10;94.00;;;;;;4993359;28;20387;-75
2022/11/14 04:44:07;;;;;;;10.53;7.23;;;4.10;94.50;;;;;;4992334;28;20409;-76
2022/11/14 04:46:32;;;;;;;12.73;7.20;;;4.20;94.70;;;;;;4993395;28;20406;-75
2022/11/14 04:48:58;;;;;;;11.00;8.20;;;4.10;94.60;;;;;;4993627;28;20403;-74
2022/11/14 04:51:23;;;;;;;11.13;7.03;;;4.10;95.30;;;;;;4993226;28;20394;-74
2022/11/14 04:53:49;;;;;;;12.38;8.00;;;4.10;95.60;;;;;;4993657;28;20383;-75
2022/11/14 04:56:14;;;;;;;13.65;7.40;;;4.10;95.90;;;;;;4993443;28;20424;-75
2022/11/14 04:58:40;;;;;;;15.80;7.88;;;4.00;96.00;;;;;;4993313;28;20390;-75
2022/11/14 05:01:09;;;;;;;14.35;8.95;;;4.00;96.20;;;;;;4993183;28;20391;-74
2022/11/14 05:03:35;;;;;;;13.13;8.70;;;4.10;96.80;;;;;;4993351;28;20748;-75
2022/11/14 05:06:02;;;;;;;11.02;7.40;;;4.10;97.40;;;;;;4992948;28;20387;-74
2022/11/14 05:08:27;;;;;;;12.00;8.35;;;4.20;94.50;;;;;;4992725;28;20421;-75
2022/11/14 05:10:53;;;;;;;14.07;9.00;;;4.10;94.80;;;;;;4992987;28;20805;-75
2022/11/14 05:13:18;;;;;;;14.00;8.70;;;4.20;94.80;;;;;;4993144;28;20390;-75
2022/11/14 05:15:44;;;;;;;12.23;8.55;;;4.20;95.50;;;;;;4993036;28;20379;-75
2022/11/14 05:18:10;;;;;;;10.57;7.30;;;4.20;95.50;;;;;;4993319;28;20394;-76
2022/11/14 05:20:35;;;;;;;11.43;7.30;;;4.20;96.40;;;;;;4992934;28;20390;-75
2022/11/14 05:23:01;;;;;;;12.53;7.53;;;4.20;95.70;;;;;;4993461;28;20390;-75
2022/11/14 05:25:26;;;;;;;11.70;7.97;;;4.30;94.80;;;;;;4993816;28;20414;-77
2022/11/14 05:27:52;;;;;;;11.85;8.05;;;4.40;95.20;;;;;;4995757;28;20900;-75
2022/11/14 05:30:17;;;;;;;13.38;8.43;;;4.50;94.90;;;;;;4997025;28;20383;-75
2022/11/14 05:32:43;;;;;;;12.90;8.30;;;4.50;94.70;;;;;;4994746;28;20393;-75
2022/11/14 05:35:09;;;;;;;12.20;8.55;;;4.50;95.90;;;;;;5000230;28;20398;-76
2022/11/14 05:37:35;;;;;;;11.00;7.77;;;4.60;94.30;;;;;;4996753;28;20813;-74
2022/11/14 05:40:00;;;;;;;11.50;7.90;;;4.60;93.20;;;;;;4992420;28;20429;-75
2022/11/14 05:42:27;;;;;;;12.13;7.28;;;4.50;92.40;;;;;;4992358;28;20872;-76
2022/11/14 05:44:52;;;;;;;13.05;8.20;;;4.60;92.50;;;;;;4992521;28;20394;-75
2022/11/14 05:47:18;;;;;;;14.40;8.93;;;4.60;92.80;;;;;;4992817;28;20414;-76
2022/11/14 05:49:44;;;;;;;17.00;9.50;;;4.90;95.80;;;;;;4992185;28;20382;-75
2022/11/14 05:52:10;;;;;;;18.90;9.13;;;5.00;93.60;;;;;;4992400;28;20945;-75
2022/11/14 05:54:36;;;;;;;12.88;8.43;;;5.10;90.60;;;;;;4992784;28;20394;-75
2022/11/14 05:57:02;;;;;;;12.80;8.35;;;5.10;86.70;;;;;;4993667;28;20394;-75
2022/11/14 05:59:27;;;;;;;12.43;8.45;;;5.00;86.10;;;;;;4993194;28;20870;-76
2022/11/14 06:01:53;;;;;;;12.98;8.80;;;4.90;87.20;;;;;;4994734;28;20414;-77
2022/11/14 06:04:19;;;;;;;13.80;8.05;;;5.20;89.30;;;;;;4996577;28;20406;-74
2022/11/14 06:06:44;;;;;;;18.27;8.48;;;5.20;84.00;;;;;;4993291;28;20433;-75
2022/11/14 06:09:10;;;;;;;30.88;10.18;;;5.00;85.00;;;;;;4992449;28;20409;-77
2022/11/14 06:11:36;;;;;;;21.57;9.57;;;5.00;87.90;;;;;;4992041;28;20386;-77
2022/11/14 06:14:02;;;;;;;20.63;9.23;;;5.00;87.30;;;;;;4993285;28;20389;-75
2022/11/14 06:16:28;;;;;;;13.80;9.57;;;5.00;89.20;;;;;;4994358;28;20398;-77
2022/11/14 06:18:54;;;;;;;14.23;8.73;;;5.00;86.10;;;;;;4993098;28;20402;-75
2022/11/14 06:21:22;;;;;;;16.85;9.73;;;5.10;86.70;;;;;;4995848;28;20880;-75
2022/11/14 06:23:48;;;;;;;16.38;9.23;;;5.20;85.30;;;;;;4993081;28;20430;-75
2022/11/14 06:26:20;;;;;;;12.20;8.68;;;5.10;83.50;;;;;;4992017;28;20398;-76
2022/11/14 06:28:46;;;;;;;18.65;9.90;;;5.00;85.20;;;;;;4991408;28;20401;-76
2022/11/14 06:31:12;;;;;;;21.10;10.00;;;5.20;84.50;;;;;;4991670;28;20402;-76
2022/11/14 06:33:37;;;;;;;21.37;10.53;;;5.10;85.70;;;;;;4991924;28;20391;-75
2022/11/14 06:36:06;;;;;;;16.92;9.93;;;5.30;84.50;;;;;;4991950;28;20475;-75
2022/11/14 06:38:34;;;;;;;16.05;10.00;;;5.60;78.80;;;;;;4992227;28;20389;-75
2022/11/14 06:41:05;;;;;;;21.02;10.13;;;5.40;78.90;;;;;;4990587;28;20398;-76
2022/11/14 06:43:32;;;;;;;22.30;10.93;;;5.30;81.90;;;;;;4991440;28;20485;-75
2022/11/14 06:45:58;;;;;;;17.75;10.10;;;5.30;84.00;;;;;;4991692;28;20486;-75
2022/11/14 06:48:23;;;;;;;14.17;10.20;;;5.40;82.80;;;;;;4991486;28;20480;-76
2022/11/14 06:50:53;;;;;;;17.93;10.97;;;5.40;83.30;;;;;;4991256;28;20406;-76
2022/11/14 06:53:19;;;;;;;17.05;10.60;;;5.30;84.40;;;;;;4991532;28;20434;-75
2022/11/14 06:55:59;;;;;;;28.47;12.57;;;5.40;87.80;;;;;;4991883;28;20425;-76
2022/11/14 06:58:26;;;;;;;26.80;12.40;;;5.50;87.30;;;;;;4991716;28;21018;-76
2022/11/14 07:00:52;;;;;;;23.80;12.68;;;5.40;86.20;;;;;;4991706;28;20985;-76
2022/11/14 07:03:17;;;;;;;19.47;11.50;;;5.50;87.60;;;;;;4991657;28;20533;-75
2022/11/14 07:05:43;;;;;;;17.80;11.40;;;5.70;90.20;;;;;;4991591;28;20395;-74
2022/11/14 07:08:09;;;;;;;17.30;11.47;;;5.80;88.60;;;;;;4991968;28;20406;-76
2022/11/14 07:10:34;;;;;;;18.02;11.18;;;6.00;88.70;;;;;;4991780;28;20401;-75
2022/11/14 07:13:00;;;;;;;17.33;10.40;;;6.00;85.20;;;;;;4997002;28;20470;-75
2022/11/14 07:15:25;;;;;;;19.90;12.20;;;6.20;83.50;;;;;;4995504;28;20394;-75
2022/11/14 07:17:51;;;;;;;21.90;11.98;;;6.50;83.30;;;;;;4998027;28;20394;-75
2022/11/14 07:20:19;;;;;;;17.77;10.73;;;6.70;78.40;;;;;;4996036;28;20414;-79
2022/11/14 07:22:46;;;;;;;16.20;10.90;;;6.70;76.10;;;;;;4994677;28;20390;-75
2022/11/14 07:25:12;;;;;;;16.05;10.80;;;6.60;72.80;;;;;;4991974;28;20774;-75
2022/11/14 07:27:37;;;;;;;19.30;11.15;;;6.60;71.60;;;;;;4992028;28;20749;-74
2022/11/14 07:30:03;;;;;;;16.70;10.57;;;6.80;71.30;;;;;;4989927;28;20394;-74
2022/11/14 07:32:29;;;;;;;16.20;11.20;;;6.70;70.30;;;;;;4990754;28;20418;-76
2022/11/14 07:34:55;;;;;;;17.70;11.27;;;6.80;72.70;;;;;;4991264;28;20844;-76
2022/11/14 07:37:20;;;;;;;19.00;11.68;;;6.80;71.10;;;;;;4991269;28;20394;-75
2022/11/14 07:39:46;;;;;;;27.52;15.75;;;6.80;70.60;;;;;;4990143;28;20410;-76
2022/11/14 07:42:11;;;;;;;18.77;12.10;;;6.70;69.60;;;;;;4990823;28;20452;-76
2022/11/14 07:44:37;;;;;;;17.48;12.10;;;6.80;68.90;;;;;;4992131;28;20453;-76
2022/11/14 07:47:02;;;;;;;21.92;13.93;;;6.80;69.50;;;;;;4994102;28;20498;-76
2022/11/14 07:49:28;;;;;;;20.67;12.23;;;6.80;71.60;;;;;;4992502;28;20478;-75
2022/11/14 07:51:54;;;;;;;17.53;11.83;;;6.90;71.70;;;;;;4990827;28;20445;-75
2022/11/14 07:54:19;;;;;;;18.63;12.47;;;6.90;69.00;;;;;;4995144;28;20383;-76
2022/11/14 07:56:45;;;;;;;21.90;13.60;;;6.90;69.90;;;;;;4993742;28;20398;-75
2022/11/14 07:59:10;;;;;;;23.10;13.50;;;6.90;70.00;;;;;;4994364;28;20392;-74
2022/11/14 08:01:36;;;;;;;21.97;12.83;;;7.00;67.60;;;;;;4994412;28;20390;-75
2022/11/14 08:04:01;;;;;;;18.00;12.50;;;6.90;66.70;;;;;;4995105;28;20386;-75
2022/11/14 08:06:27;;;;;;;21.97;12.87;;;7.00;67.20;;;;;;4994653;28;20410;-76
2022/11/14 08:08:53;;;;;;;23.87;13.57;;;7.00;68.90;;;;;;4997866;28;20427;-75
2022/11/14 08:11:46;;;;;;;24.23;15.07;;;7.30;65.50;;;;;;5014230;28;20393;-76
2022/11/14 08:14:04;;;;;;;28.70;15.80;;;7.40;65.80;;;;;;5014242;28;20443;-76
2022/11/14 08:16:30;;;;;;;25.63;15.95;;;7.50;64.50;;;;;;5013849;28;20477;-76
2022/11/14 08:18:55;;;;;;;27.20;16.65;;;7.60;64.10;;;;;;5015610;28;20424;-75
2022/11/14 08:21:21;;;;;;;36.60;18.25;;;7.80;64.50;;;;;;5022238;28;20407;-75
2022/11/14 08:23:46;;;;;;;39.00;19.10;;;7.90;64.80;;;;;;5020629;28;20415;-75
2022/11/14 08:26:12;;;;;;;30.53;18.10;;;8.00;63.60;;;;;;5019714;28;20420;-75
2022/11/14 08:28:37;;;;;;;33.47;19.20;;;8.20;61.70;;;;;;5021918;28;20486;-76
2022/11/14 08:31:03;;;;;;;31.63;18.40;;;8.30;61.40;;;;;;5037124;28;20387;-74
2022/11/14 08:33:30;;;;;;;34.15;19.85;;;8.40;61.50;;;;;;4994908;28;20394;-76
2022/11/14 08:36:00;;;;;;;35.97;19.58;;;8.40;60.80;;;;;;4997468;28;20419;-76
2022/11/14 08:38:25;;;;;;;32.42;19.30;;;8.50;59.20;;;;;;4995137;28;20390;-76
2022/11/14 08:40:51;;;;;;;35.65;18.83;;;8.70;58.50;;;;;;4997728;28;21042;-76
2022/11/14 08:43:16;;;;;;;30.88;18.55;;;8.80;56.70;;;;;;4998101;28;20419;-76
2022/11/14 08:45:42;;;;;;;33.95;18.20;;;8.90;54.50;;;;;;4995837;28;20402;-76
2022/11/14 08:48:08;;;;;;;32.22;20.10;;;8.90;54.00;;;;;;4996031;28;20418;-76
2022/11/14 08:50:34;;;;;;;35.78;19.55;;;8.80;55.30;;;;;;4994207;28;20387;-76
2022/11/14 08:52:59;;;;;;;32.70;19.00;;;8.90;55.10;;;;;;4994252;28;20840;-77
2022/11/14 08:55:25;;;;;;;32.85;19.20;;;8.80;53.40;;;;;;4995111;28;20437;-77
2022/11/14 08:57:52;;;;;;;35.27;20.00;;;8.90;54.70;;;;;;4996277;28;20394;-75
2022/11/14 09:00:18;;;;;;;30.38;18.83;;;8.90;53.70;;;;;;4994027;28;20494;-75
2022/11/14 09:02:43;;;;;;;33.87;19.70;;;8.90;54.00;;;;;;4994050;28;20832;-76
2022/11/14 09:05:09;;;;;;;38.80;20.87;;;9.00;54.40;;;;;;4994643;28;20474;-76
2022/11/14 09:07:35;;;;;;;37.27;21.47;;;9.20;53.20;;;;;;4996471;28;20414;-76
2022/11/14 09:10:01;;;;;;;36.33;21.17;;;9.10;53.20;;;;;;4995525;28;20406;-76
2022/11/14 09:12:26;;;;;;;39.97;22.10;;;9.20;54.00;;;;;;4995038;28;20826;-77
2022/11/14 09:14:52;;;;;;;38.40;21.30;;;9.20;54.40;;;;;;4995065;28;20398;-76
2022/11/14 09:17:17;;;;;;;38.50;22.27;;;9.10;54.30;;;;;;4995076;28;20469;-77
2022/11/14 09:19:43;;;;;;;38.97;22.00;;;9.10;54.50;;;;;;4995600;28;20394;-77
2022/11/14 09:22:08;;;;;;;41.90;23.33;;;9.10;55.20;;;;;;4994047;28;20891;-77
2022/11/14 09:24:34;;;;;;;43.07;21.77;;;9.20;54.80;;;;;;4996115;28;20395;-77
2022/11/14 09:26:59;;;;;;;43.00;22.17;;;9.20;54.70;;;;;;5001909;28;20410;-76
2022/11/14 09:29:25;;;;;;;46.83;23.67;;;9.20;53.30;;;;;;5014032;28;20479;-76
2022/11/14 09:31:52;;;;;;;45.42;24.83;;;9.20;53.70;;;;;;5014330;28;20393;-76
2022/11/14 09:34:17;;;;;;;42.22;21.80;;;9.10;54.20;;;;;;5013652;28;20443;-78
2022/11/14 09:36:43;;;;;;;42.53;21.85;;;9.10;53.70;;;;;;5015991;28;20936;-75
2022/11/14 09:39:08;;;;;;;43.45;23.25;;;9.20;52.80;;;;;;5013417;28;20496;-75
2022/11/14 09:41:39;;;;;;;39.30;22.10;;;9.10;53.70;;;;;;5013180;28;20889;-75
2022/11/14 09:44:19;;;;;;;43.95;23.17;;;9.20;54.40;;;;;;5013804;28;20389;-75
2022/11/14 09:46:49;;;;;;;40.03;22.55;;;9.10;55.50;;;;;;5013990;28;20731;-77
2022/11/14 09:49:24;;;;;;;43.03;23.58;;;9.20;53.40;;;;;;5014713;28;20389;-76
2022/11/14 09:51:55;;;;;;;38.08;22.58;;;9.30;53.30;;;;;;5014770;28;20377;-77
2022/11/14 09:54:23;;;;;;;41.57;22.80;;;9.20;53.30;;;;;;5013381;28;20467;-78
2022/11/14 09:56:49;;;;;;;34.92;20.50;;;9.20;53.30;;;;;;5013411;28;20395;-78
2022/11/14 09:59:15;;;;;;;41.27;22.83;;;9.30;53.40;;;;;;5008307;28;20872;-75
2022/11/14 10:01:50;;;;;;;33.47;20.48;;;9.30;54.50;;;;;;4993338;28;20568;-77
2022/11/14 10:04:48;;;;;;;36.03;20.77;;;9.50;54.70;;;;;;4994819;28;20748;-77
2022/11/14 10:07:32;;;;;;;36.78;20.60;;;9.50;53.50;;;;;;5012395;28;20952;-77
2022/11/14 10:10:17;;;;;;;33.22;19.08;;;9.50;53.20;;;;;;5012250;28;20472;-78
2022/11/14 10:13:10;;;;;;;32.95;17.98;;;9.70;52.30;;;;;;5010917;28;20404;-77
2022/11/14 10:15:51;;;;;;;29.10;17.00;;;9.70;50.50;;;;;;5011908;28;20396;-75
2022/11/14 10:18:24;;;;;;;29.30;17.70;;;9.70;51.60;;;;;;5012564;28;20544;-75
2022/11/14 10:20:54;;;;;;;34.40;17.40;;;9.70;53.50;;;;;;5015655;28;20415;-75
2022/11/14 10:23:27;;;;;;;32.57;17.73;;;9.70;53.00;;;;;;5017103;28;20406;-76
2022/11/14 10:26:19;;;;;;;31.37;16.80;;;9.70;55.30;;;;;;5011064;28;20446;-76
2022/11/14 10:28:56;;;;;;;27.63;16.60;;;9.80;52.60;;;;;;5005724;28;20416;-75
2022/11/14 10:31:51;;;;;;;26.48;15.88;;;9.70;52.50;;;;;;5009201;28;20865;-76
2022/11/14 10:34:33;;;;;;;28.58;16.70;;;9.80;52.60;;;;;;5009630;28;20411;-74
2022/11/14 10:37:41;;;;;;;29.10;16.05;;;9.90;52.10;;;;;;5010832;28;20396;-76
2022/11/14 10:40:19;;;;;;;26.27;15.00;;;10.00;49.90;;;;;;5007660;28;20471;-75
2022/11/14 10:42:54;;;;;;;26.67;14.70;;;10.20;50.00;;;;;;5009599;28;20478;-75
2022/11/14 10:45:27;;;;;;;23.87;14.17;;;10.40;47.70;;;;;;5008929;28;20869;-75
2022/11/14 10:48:00;;;;;;;23.10;13.70;;;10.50;47.60;;;;;;5009483;28;20623;-76
2022/11/14 10:50:52;;;;;;;27.70;14.93;;;10.40;47.80;;;;;;5009769;28;20750;-74
2022/11/14 10:53:22;;;;;;;27.92;16.40;;;10.40;47.50;;;;;;5007394;28;20401;-74
2022/11/14 10:55:53;;;;;;;27.77;15.50;;;10.50;47.70;;;;;;5011637;28;20487;-75
2022/11/14 10:58:21;;;;;;;27.93;16.80;;;10.50;47.30;;;;;;5011942;28;20472;-75
2022/11/14 11:00:47;;;;;;;25.77;16.40;;;10.60;46.90;;;;;;5011043;28;20415;-73
2022/11/14 11:03:12;;;;;;;28.53;17.23;;;10.60;47.80;;;;;;5008473;28;20397;-73
2022/11/14 11:05:50;;;;;;;31.90;18.20;;;10.60;48.80;;;;;;5013301;28;20396;-76
2022/11/14 11:11:29;;;;;;;25.77;16.20;;;10.60;47.20;;;;;;5007676;28;20400;-76
2022/11/14 11:13:58;;;;;;;32.80;17.70;;;10.60;46.60;;;;;;5017441;28;20401;-76
2022/11/14 11:16:25;;;;;;;44.60;18.70;;;10.60;47.30;;;;;;5018792;28;20384;-75
2022/11/14 11:18:51;;;;;;;32.22;17.67;;;10.50;48.40;;;;;;5016049;28;20381;-75
2022/11/14 11:21:19;;;;;;;31.38;17.00;;;10.70;49.70;;;;;;5024003;28;20392;-75
2022/11/14 11:23:51;;;;;;;28.08;18.17;;;10.80;47.60;;;;;;5024747;28;20408;-74
2022/11/14 11:26:22;;;;;;;30.30;16.70;;;10.90;48.50;;;;;;5014546;28;20408;-74
2022/11/14 11:29:04;;;;;;;33.78;18.60;;;11.00;46.20;;;;;;5016703;28;20384;-75
2022/11/14 11:31:53;;;;;;;26.35;16.40;;;11.10;45.50;;;;;;5017303;28;20858;-75
2022/11/14 11:34:37;;;;;;;27.00;17.15;;;11.20;42.70;;;;;;5015400;28;20389;-75
2022/11/14 11:37:20;;;;;;;32.15;19.65;;;11.30;43.90;;;;;;5016251;28;20404;-75
2022/11/14 11:39:53;;;;;;;35.40;19.15;;;11.40;44.80;;;;;;5013809;28;20405;-75
2022/11/14 11:42:24;;;;;;;30.83;18.60;;;11.40;43.50;;;;;;5014526;28;20970;-72
2022/11/14 11:44:57;;;;;;;34.97;19.45;;;11.50;43.00;;;;;;5013919;28;20539;-73
2022/11/14 11:47:24;;;;;;;32.65;18.42;;;11.60;42.40;;;;;;5014243;28;20498;-74
2022/11/14 11:49:51;;;;;;;53.05;21.50;;;11.40;42.50;;;;;;5014766;28;20814;-74
2022/11/14 11:52:31;;;;;;;36.22;21.30;;;11.40;43.90;;;;;;5014353;28;20389;-74
2022/11/14 11:55:08;;;;;;;30.00;18.77;;;11.30;44.30;;;;;;5015039;28;20381;-75
2022/11/14 11:57:50;;;;;;;30.17;17.30;;;11.20;43.50;;;;;;5014698;28;20853;-74
2022/11/14 12:00:20;;;;;;;32.08;19.05;;;11.00;43.70;;;;;;5014092;28;20412;-73
2022/11/14 12:02:51;;;;;;;33.03;20.77;;;11.10;44.10;;;;;;5013479;28;20396;-75
2022/11/14 12:05:35;;;;;;;33.33;20.00;;;11.20;42.50;;;;;;5014548;28;20415;-73
2022/11/14 12:08:09;;;;;;;28.98;18.92;;;11.30;43.20;;;;;;5014824;28;20415;-73
2022/11/14 12:10:40;;;;;;;30.55;18.38;;;11.30;43.80;;;;;;5013086;28;20765;-73
2022/11/14 12:13:12;;;;;;;29.70;18.43;;;11.50;42.50;;;;;;5013453;28;20483;-71
2022/11/14 12:15:43;;;;;;;27.65;17.92;;;11.60;40.50;;;;;;5011788;28;20393;-72
2022/11/14 12:18:17;;;;;;;31.40;19.23;;;11.50;40.20;;;;;;4998970;28;20505;-72
2022/11/14 12:20:45;;;;;;;35.05;19.85;;;11.40;41.60;;;;;;4994753;28;20954;-72
2022/11/14 12:23:32;;;;;;;31.45;18.95;;;11.50;42.80;;;;;;5001314;28;20866;-72
2022/11/14 12:26:05;;;;;;;29.60;17.70;;;11.40;43.50;;;;;;5008438;28;20429;-72
2022/11/14 12:28:58;;;;;;;35.30;18.95;;;11.40;41.80;;;;;;5002375;28;20406;-75
2022/11/14 12:31:27;;;;;;;30.77;19.20;;;11.50;42.20;;;;;;5012587;28;20719;-76
2022/11/14 12:33:57;;;;;;;34.22;20.25;;;11.70;42.50;;;;;;4996007;28;20422;-73
2022/11/14 12:36:29;;;;;;;31.05;18.90;;;11.80;42.10;;;;;;5003726;28;20474;-73
2022/11/14 12:38:55;;;;;;;35.42;19.52;;;12.00;40.30;;;;;;5005604;28;20391;-72
2022/11/14 12:41:30;;;;;;;28.40;17.80;;;12.00;39.30;;;;;;5025242;28;20395;-72
2022/11/14 12:44:27;;;;;;;32.00;19.45;;;12.00;39.80;;;;;;5014706;28;20408;-72
2022/11/14 12:47:04;;;;;;;34.08;19.80;;;12.00;40.40;;;;;;5012654;28;20424;-72
2022/11/14 12:49:52;;;;;;;32.60;19.80;;;12.00;40.60;;;;;;5013641;28;20380;-73